Time;durP1;ratioP1;P1;durP2;ratioP2;P2;SDS_P1;SDS_P2;PMS_P1;PMS_P2;Temp;Humidity;BMP_temperature;BMP_pressure;BME280_temperature;BME280_humidity;BME280_pressure;Samples;Min_cycle;Max_cycle;Signal;HPM_P1;HPM_P2
2023/08/07 00:00:42;;;;;;;4.55;1.30;;;16.60;99.90;;;;;;6187423;23;20017;-77
2023/08/07 00:03:08;;;;;;;3.17;1.20;;;16.70;99.90;;;;;;6160645;23;20017;-76
2023/08/07 00:05:33;;;;;;;3.97;1.40;;;16.70;99.90;;;;;;6160678;23;20021;-76
2023/08/07 00:07:59;;;;;;;3.88;1.40;;;16.70;99.90;;;;;;6160599;23;20437;-76
2023/08/07 00:10:25;;;;;;;2.63;1.10;;;16.60;99.90;;;;;;6160594;23;20441;-76
2023/08/07 00:12:51;;;;;;;4.07;1.33;;;16.70;99.90;;;;;;6187299;23;20028;-76
2023/08/07 00:15:16;;;;;;;3.90;1.58;;;16.70;99.90;;;;;;6160599;23;20013;-76
2023/08/07 00:17:42;;;;;;;3.65;1.00;;;16.60;99.90;;;;;;6187198;23;20017;-76
2023/08/07 00:20:08;;;;;;;5.18;1.20;;;16.60;99.90;;;;;;6160657;23;20028;-76
2023/08/07 00:22:34;;;;;;;3.30;1.10;;;16.60;99.90;;;;;;6160587;23;20493;-77
2023/08/07 00:25:00;;;;;;;5.78;1.15;;;16.60;99.90;;;;;;6160206;23;20048;-76
2023/08/07 00:27:26;;;;;;;3.47;1.10;;;16.70;99.90;;;;;;6160503;23;20155;-76
2023/08/07 00:29:51;;;;;;;3.65;1.20;;;16.60;99.90;;;;;;6160513;23;20060;-76
2023/08/07 00:32:17;;;;;;;3.55;1.10;;;16.60;99.90;;;;;;6160461;23;20044;-76
2023/08/07 00:34:43;;;;;;;4.10;1.30;;;16.60;99.90;;;;;;6160063;23;20323;-75
2023/08/07 00:37:11;;;;;;;2.88;1.33;;;16.60;99.90;;;;;;6160327;23;20021;-76
2023/08/07 00:39:36;;;;;;;5.60;1.70;;;16.60;99.90;;;;;;6160379;23;20048;-76
2023/08/07 00:42:03;;;;;;;4.00;1.35;;;16.60;99.90;;;;;;6160347;23;20020;-75
2023/08/07 00:44:28;;;;;;;3.30;1.15;;;16.60;99.90;;;;;;6160300;23;20453;-76
2023/08/07 00:46:57;;;;;;;5.15;1.05;;;16.50;99.90;;;;;;6160267;23;20024;-76
2023/08/07 00:49:22;;;;;;;4.03;1.30;;;16.50;99.90;;;;;;6186773;23;20017;-76
2023/08/07 00:51:48;;;;;;;2.92;1.23;;;16.50;99.90;;;;;;6160267;23;20009;-76
2023/08/07 00:54:19;;;;;;;3.58;1.30;;;16.50;99.90;;;;;;6186901;23;20064;-75
2023/08/07 00:56:45;;;;;;;4.10;1.58;;;16.60;99.90;;;;;;6160139;23;20021;-76
2023/08/07 00:59:12;;;;;;;4.57;1.05;;;16.50;99.90;;;;;;6186851;23;20012;-76
2023/08/07 01:01:38;;;;;;;4.78;1.40;;;16.50;99.90;;;;;;6160138;23;20335;-76
2023/08/07 01:04:04;;;;;;;5.82;1.35;;;16.50;99.90;;;;;;6160072;23;20460;-76
2023/08/07 01:06:29;;;;;;;4.43;1.40;;;16.50;99.90;;;;;;6160232;23;20033;-76
2023/08/07 01:08:56;;;;;;;4.15;1.35;;;16.50;99.90;;;;;;6186638;23;20053;-76
2023/08/07 01:11:44;;;;;;;4.75;1.60;;;16.50;99.90;;;;;;6160099;23;20088;-76
2023/08/07 01:14:25;;;;;;;3.65;1.35;;;16.40;99.90;;;;;;6160135;23;20043;-77
2023/08/07 01:17:05;;;;;;;4.68;1.30;;;16.50;99.90;;;;;;6160123;23;20021;-77
2023/08/07 01:19:31;;;;;;;4.85;1.35;;;16.50;99.90;;;;;;6160031;23;20052;-76
2023/08/07 01:22:09;;;;;;;3.22;1.35;;;16.50;99.90;;;;;;6186671;23;20005;-76
2023/08/07 01:24:36;;;;;;;4.30;1.40;;;16.50;99.90;;;;;;6186689;23;20017;-76
2023/08/07 01:28:01;;;;;;;3.38;1.30;;;16.50;99.90;;;;;;6186634;23;20044;-76
2023/08/07 01:30:35;;;;;;;3.53;1.40;;;16.50;99.90;;;;;;6066599;23;20025;-77
2023/08/07 01:33:17;;;;;;;5.13;1.42;;;16.50;99.90;;;;;;6042378;23;20026;-76
2023/08/07 01:35:47;;;;;;;3.55;1.30;;;16.50;99.90;;;;;;6117653;23;20083;-76
2023/08/07 01:38:14;;;;;;;4.03;1.50;;;16.50;99.90;;;;;;6159884;23;20055;-76
2023/08/07 01:40:41;;;;;;;4.95;1.30;;;16.50;99.90;;;;;;6159895;23;20493;-76
2023/08/07 01:43:08;;;;;;;5.85;1.27;;;16.50;99.90;;;;;;6159822;23;20099;-76
2023/08/07 01:45:34;;;;;;;4.15;1.58;;;16.50;99.90;;;;;;6159625;23;20040;-76
2023/08/07 01:48:00;;;;;;;4.13;1.40;;;16.60;99.90;;;;;;6159665;23;20021;-77
2023/08/07 01:50:26;;;;;;;4.40;1.77;;;16.60;99.90;;;;;;6159850;23;20028;-76
2023/08/07 01:52:51;;;;;;;4.97;1.55;;;16.50;99.90;;;;;;6159817;23;20025;-77
2023/08/07 01:55:19;;;;;;;3.95;1.60;;;16.50;99.90;;;;;;6159775;23;20048;-77
2023/08/07 01:57:44;;;;;;;5.53;1.80;;;16.60;99.90;;;;;;6159712;23;20017;-77
2023/08/07 02:00:13;;;;;;;3.70;2.00;;;16.60;99.90;;;;;;6159616;23;20036;-76
2023/08/07 02:02:39;;;;;;;5.28;1.90;;;16.70;99.90;;;;;;6159617;23;20013;-77
2023/08/07 02:05:05;;;;;;;6.95;1.70;;;16.70;99.90;;;;;;6184524;23;20055;-76
2023/08/07 02:07:34;;;;;;;4.97;1.55;;;16.80;99.90;;;;;;6159586;23;20345;-76
2023/08/07 02:09:59;;;;;;;4.68;1.20;;;16.80;99.90;;;;;;6159639;23;20028;-77
2023/08/07 02:12:26;;;;;;;4.13;1.95;;;16.80;99.90;;;;;;6186296;23;20017;-77
2023/08/07 02:14:52;;;;;;;6.13;1.70;;;16.80;99.90;;;;;;6159559;23;20025;-76
2023/08/07 02:17:20;;;;;;;7.07;1.67;;;16.90;99.90;;;;;;6159589;23;20021;-76
2023/08/07 02:19:45;;;;;;;6.28;1.55;;;16.80;99.90;;;;;;6159583;23;20024;-78
2023/08/07 02:22:14;;;;;;;5.55;1.48;;;16.90;99.90;;;;;;6159371;23;20151;-75
2023/08/07 02:24:40;;;;;;;4.72;1.17;;;16.90;99.90;;;;;;6159186;23;20440;-75
2023/08/07 02:27:07;;;;;;;6.43;1.48;;;16.90;99.90;;;;;;6159539;23;20453;-76
2023/08/07 02:29:34;;;;;;;4.57;1.42;;;16.80;99.90;;;;;;6159906;23;20064;-77
2023/08/07 02:32:03;;;;;;;7.35;1.65;;;16.80;99.90;;;;;;6186191;23;20019;-76
2023/08/07 02:34:29;;;;;;;6.20;1.65;;;16.80;99.90;;;;;;6159537;23;20036;-76
2023/08/07 02:36:55;;;;;;;5.82;1.20;;;16.80;99.90;;;;;;6159578;23;20017;-76
2023/08/07 02:39:21;;;;;;;7.43;1.45;;;16.80;99.90;;;;;;6159497;23;20024;-76
2023/08/07 02:41:46;;;;;;;8.45;1.77;;;16.80;99.90;;;;;;6185869;23;20021;-76
2023/08/07 02:44:12;;;;;;;7.95;1.55;;;16.80;99.90;;;;;;6159480;23;20088;-76
2023/08/07 02:46:37;;;;;;;6.38;1.60;;;16.80;99.90;;;;;;6159475;23;20024;-76
2023/08/07 02:49:04;;;;;;;5.60;1.75;;;16.80;99.90;;;;;;6160065;23;20071;-76
2023/08/07 02:51:30;;;;;;;7.47;2.10;;;16.70;99.90;;;;;;6159361;23;20025;-76
2023/08/07 02:53:56;;;;;;;10.30;2.17;;;16.80;99.90;;;;;;6159406;23;20472;-76
2023/08/07 02:56:21;;;;;;;7.55;2.03;;;16.80;99.90;;;;;;6159364;23;20024;-76
2023/08/07 02:58:47;;;;;;;9.73;2.08;;;16.80;99.90;;;;;;6161114;23;20021;-76
2023/08/07 03:01:16;;;;;;;9.63;2.03;;;16.90;99.90;;;;;;6161283;23;20013;-76
2023/08/07 03:03:41;;;;;;;12.77;2.58;;;16.80;99.90;;;;;;6161397;23;20080;-76
2023/08/07 03:06:07;;;;;;;9.68;2.75;;;16.80;99.90;;;;;;6187717;23;20028;-76
2023/08/07 03:08:33;;;;;;;12.88;2.65;;;16.80;99.90;;;;;;6161171;23;20096;-76
2023/08/07 03:10:58;;;;;;;13.15;2.63;;;16.80;99.90;;;;;;6161267;23;20064;-76
2023/08/07 03:13:31;;;;;;;11.25;2.45;;;16.90;99.90;;;;;;6161650;23;20036;-77
2023/08/07 03:16:01;;;;;;;9.45;2.67;;;16.80;99.90;;;;;;6161248;23;20047;-77
2023/08/07 03:18:28;;;;;;;9.25;2.70;;;16.80;99.90;;;;;;6161190;23;20070;-77
2023/08/07 03:20:54;;;;;;;10.18;2.50;;;16.70;99.90;;;;;;6187397;23;20028;-77
2023/08/07 03:23:21;;;;;;;17.55;3.90;;;16.70;99.90;;;;;;6161185;23;20017;-75
2023/08/07 03:25:47;;;;;;;10.90;2.75;;;16.80;99.90;;;;;;6160796;23;20024;-77
2023/08/07 03:28:13;;;;;;;12.15;2.80;;;16.70;99.90;;;;;;6187716;23;20025;-77
2023/08/07 03:30:39;;;;;;;10.90;3.05;;;16.70;99.90;;;;;;6161034;23;20088;-76
2023/08/07 03:33:04;;;;;;;9.63;2.03;;;16.70;99.90;;;;;;6161097;23;20059;-76
2023/08/07 03:35:30;;;;;;;10.57;2.88;;;16.70;99.90;;;;;;6187672;23;20074;-76
2023/08/07 03:37:56;;;;;;;10.13;2.63;;;16.70;99.90;;;;;;6187414;23;20041;-76
2023/08/07 03:40:21;;;;;;;10.43;2.90;;;16.70;99.90;;;;;;6160931;23;20017;-77
2023/08/07 03:42:47;;;;;;;10.10;2.63;;;16.60;99.90;;;;;;6160985;23;20024;-77
2023/08/07 03:45:14;;;;;;;9.45;2.65;;;16.70;99.90;;;;;;6160968;23;20125;-76
2023/08/07 03:47:42;;;;;;;11.15;3.10;;;16.70;99.90;;;;;;6160741;23;20449;-77
2023/08/07 03:50:08;;;;;;;12.70;3.05;;;16.70;99.90;;;;;;6160771;23;20017;-76
2023/08/07 03:52:33;;;;;;;9.60;2.30;;;16.70;99.90;;;;;;6160848;23;20013;-76
2023/08/07 03:54:59;;;;;;;9.23;2.58;;;16.60;99.90;;;;;;6187498;23;20107;-77
2023/08/07 03:57:25;;;;;;;12.38;3.08;;;16.60;99.90;;;;;;6187417;23;20341;-77
2023/08/07 03:59:50;;;;;;;11.88;2.30;;;16.60;99.90;;;;;;6160714;23;20446;-75
2023/08/07 04:02:16;;;;;;;15.68;3.33;;;16.60;99.90;;;;;;6160517;23;20349;-77
2023/08/07 04:04:42;;;;;;;9.95;2.70;;;16.60;99.90;;;;;;6160504;23;20092;-76
2023/08/07 04:07:07;;;;;;;13.32;2.83;;;16.60;99.90;;;;;;6160660;23;20101;-75
2023/08/07 04:09:33;;;;;;;13.68;3.00;;;16.60;99.90;;;;;;6160151;23;20499;-76
2023/08/07 04:11:59;;;;;;;17.13;3.50;;;16.60;99.90;;;;;;6160717;23;20017;-76
2023/08/07 04:14:24;;;;;;;15.57;4.22;;;16.60;99.90;;;;;;6160640;23;20021;-77
2023/08/07 04:16:50;;;;;;;14.98;3.05;;;16.60;99.90;;;;;;6160599;23;20017;-77
2023/08/07 04:19:16;;;;;;;11.15;2.58;;;16.50;99.90;;;;;;6160131;23;20357;-77
2023/08/07 04:21:42;;;;;;;12.68;2.80;;;16.40;99.90;;;;;;6159842;23;20453;-77
2023/08/07 04:24:10;;;;;;;11.32;2.95;;;16.40;99.90;;;;;;6160536;23;20342;-77
2023/08/07 04:26:37;;;;;;;11.77;2.55;;;16.30;99.90;;;;;;6160174;23;20469;-76
2023/08/07 04:29:03;;;;;;;15.50;3.13;;;16.40;99.90;;;;;;6186912;23;20017;-77
2023/08/07 04:31:31;;;;;;;11.50;2.75;;;16.30;99.90;;;;;;6160358;23;20017;-77
2023/08/07 04:33:57;;;;;;;12.75;2.97;;;16.30;99.90;;;;;;6186514;23;20338;-77
2023/08/07 04:36:23;;;;;;;11.55;3.30;;;16.20;99.90;;;;;;6160322;23;20013;-78
2023/08/07 04:38:50;;;;;;;14.80;4.47;;;16.20;99.90;;;;;;6160270;23;20486;-78
2023/08/07 04:41:15;;;;;;;13.75;3.83;;;16.20;99.90;;;;;;6160329;23;20393;-77
2023/08/07 04:43:42;;;;;;;17.85;3.67;;;16.20;99.90;;;;;;6186817;23;20017;-78
2023/08/07 04:46:09;;;;;;;12.18;3.15;;;16.20;99.90;;;;;;6186926;23;20013;-77
2023/08/07 04:48:35;;;;;;;13.65;2.92;;;16.20;99.90;;;;;;6159899;23;20021;-77
2023/08/07 04:51:02;;;;;;;11.77;2.47;;;16.20;99.90;;;;;;6160251;23;20027;-74
2023/08/07 04:53:27;;;;;;;12.35;3.42;;;16.20;99.90;;;;;;6160120;23;20025;-77
2023/08/07 04:55:53;;;;;;;11.68;2.97;;;16.20;99.90;;;;;;6186842;23;20346;-76
2023/08/07 04:58:18;;;;;;;11.23;3.30;;;16.20;99.90;;;;;;6160131;23;20064;-76
2023/08/07 05:00:44;;;;;;;12.38;2.78;;;16.20;99.90;;;;;;6186459;23;20025;-75
2023/08/07 05:03:10;;;;;;;6.57;2.58;;;16.20;99.90;;;;;;6160075;23;20185;-75
2023/08/07 05:05:35;;;;;;;12.02;2.70;;;16.20;99.90;;;;;;6160120;23;20028;-76
2023/08/07 05:08:01;;;;;;;14.88;3.28;;;16.30;99.90;;;;;;6186251;23;20021;-75
2023/08/07 05:10:27;;;;;;;12.65;2.78;;;16.30;99.90;;;;;;6159989;23;20350;-76
2023/08/07 05:12:55;;;;;;;10.18;2.80;;;16.20;99.90;;;;;;6151222;23;20017;-76
2023/08/07 05:15:22;;;;;;;14.13;2.97;;;16.30;99.90;;;;;;6186181;23;20040;-75
2023/08/07 05:17:48;;;;;;;6.28;2.03;;;16.30;99.90;;;;;;6159860;23;20021;-76
2023/08/07 05:20:14;;;;;;;9.68;2.30;;;16.30;99.90;;;;;;6186249;23;20048;-76
2023/08/07 05:22:39;;;;;;;11.93;2.65;;;16.20;99.90;;;;;;6159937;23;20021;-76
2023/08/07 05:25:05;;;;;;;10.95;2.60;;;16.20;99.90;;;;;;6159695;23;20071;-76
2023/08/07 05:27:32;;;;;;;11.73;2.58;;;16.30;99.90;;;;;;6159779;23;20066;-76
2023/08/07 05:29:59;;;;;;;10.90;1.77;;;16.30;99.90;;;;;;6159795;23;20103;-75
2023/08/07 05:32:25;;;;;;;8.65;2.13;;;16.40;99.90;;;;;;6159808;23;20465;-76
2023/08/07 05:34:51;;;;;;;9.30;2.47;;;16.30;99.90;;;;;;6186441;23;20072;-75
2023/08/07 05:37:16;;;;;;;18.13;3.40;;;16.30;99.90;;;;;;6159695;23;20053;-76
2023/08/07 05:39:42;;;;;;;13.32;2.33;;;16.30;99.90;;;;;;6186092;23;20373;-75
2023/08/07 05:42:09;;;;;;;14.45;2.28;;;16.30;99.90;;;;;;6186354;23;20016;-75
2023/08/07 05:44:35;;;;;;;9.52;2.22;;;16.40;99.90;;;;;;6159629;23;20067;-75
2023/08/07 05:47:01;;;;;;;14.95;2.70;;;16.40;99.90;;;;;;6159918;23;20092;-75
2023/08/07 05:49:27;;;;;;;9.18;1.80;;;16.40;99.90;;;;;;6159539;23;20087;-75
2023/08/07 05:51:53;;;;;;;12.10;2.33;;;16.40;99.90;;;;;;6159663;23;20021;-75
2023/08/07 05:54:21;;;;;;;7.45;2.17;;;16.40;99.90;;;;;;6159705;23;20063;-76
2023/08/07 05:56:47;;;;;;;10.10;2.03;;;16.30;99.90;;;;;;6159647;23;20024;-76
2023/08/07 05:59:16;;;;;;;10.07;2.45;;;16.40;99.90;;;;;;6159636;23;20016;-76
2023/08/07 06:01:41;;;;;;;11.02;1.88;;;16.40;99.90;;;;;;6159573;23;20020;-75
2023/08/07 06:04:07;;;;;;;14.85;2.70;;;16.40;99.90;;;;;;6159792;23;20017;-76
2023/08/07 06:06:35;;;;;;;11.82;2.92;;;16.40;99.90;;;;;;6186188;23;20008;-76
2023/08/07 06:09:02;;;;;;;12.95;2.95;;;16.40;99.90;;;;;;6159436;23;20013;-76
2023/08/07 06:11:27;;;;;;;12.13;2.50;;;16.40;99.90;;;;;;6159466;23;20009;-76
2023/08/07 06:13:53;;;;;;;13.00;2.17;;;16.30;99.90;;;;;;6159346;23;20048;-76
2023/08/07 06:16:19;;;;;;;8.82;2.22;;;16.20;99.90;;;;;;6159530;23;20026;-76
2023/08/07 06:18:44;;;;;;;10.90;2.25;;;16.20;99.90;;;;;;6159565;23;20021;-75
2023/08/07 06:21:10;;;;;;;10.95;2.45;;;16.20;99.90;;;;;;6185756;23;20031;-76
2023/08/07 06:23:37;;;;;;;9.23;2.13;;;16.20;99.90;;;;;;6159404;23;20079;-76
2023/08/07 06:26:04;;;;;;;9.73;2.50;;;16.20;99.90;;;;;;6158960;23;20028;-76
2023/08/07 06:28:35;;;;;;;9.15;1.90;;;16.20;99.90;;;;;;6184737;23;20017;-78
2023/08/07 06:31:08;;;;;;;6.95;1.80;;;16.20;99.90;;;;;;6159206;23;20025;-76
2023/08/07 06:33:34;;;;;;;11.20;2.47;;;16.20;99.90;;;;;;6160386;23;20013;-75
2023/08/07 06:36:00;;;;;;;7.10;1.98;;;16.10;99.90;;;;;;6161121;23;20021;-77
2023/08/07 06:38:26;;;;;;;10.15;2.42;;;16.00;99.90;;;;;;6160700;23;20013;-77
2023/08/07 06:40:51;;;;;;;7.72;2.05;;;16.00;99.90;;;;;;6160779;23;20102;-78
2023/08/07 06:43:17;;;;;;;10.75;2.05;;;16.00;99.90;;;;;;6160724;23;20642;-77
2023/08/07 06:45:46;;;;;;;14.68;2.40;;;16.00;99.90;;;;;;6160745;23;20044;-77
2023/08/07 06:48:12;;;;;;;13.68;3.35;;;16.10;99.90;;;;;;6187186;23;20020;-76
2023/08/07 06:50:37;;;;;;;9.68;2.10;;;16.00;99.90;;;;;;6161049;23;20020;-77
2023/08/07 06:53:03;;;;;;;16.40;2.50;;;16.00;99.90;;;;;;6187336;23;20319;-77
2023/08/07 06:55:29;;;;;;;7.38;2.40;;;16.00;99.90;;;;;;6187293;23;20020;-75
2023/08/07 06:57:54;;;;;;;12.75;2.80;;;16.00;99.90;;;;;;6161076;23;20355;-75
2023/08/07 07:00:20;;;;;;;10.57;3.47;;;15.90;99.90;;;;;;6160794;23;20023;-75
2023/08/07 07:02:46;;;;;;;11.77;2.08;;;15.80;99.90;;;;;;6185918;23;20016;-75
2023/08/07 07:05:11;;;;;;;10.40;2.53;;;16.00;99.90;;;;;;6161002;23;20457;-76
2023/08/07 07:07:38;;;;;;;8.30;2.20;;;16.00;99.90;;;;;;6187297;23;20028;-75
2023/08/07 07:10:06;;;;;;;6.32;2.08;;;16.10;99.90;;;;;;6187176;23;20408;-75
2023/08/07 07:12:32;;;;;;;7.78;2.08;;;16.20;99.90;;;;;;6187264;23;20029;-76
2023/08/07 07:14:58;;;;;;;9.57;2.70;;;16.20;99.90;;;;;;6160852;23;20017;-82
2023/08/07 07:17:23;;;;;;;12.27;2.75;;;16.20;99.90;;;;;;6160832;23;20025;-75
2023/08/07 07:19:49;;;;;;;8.50;2.38;;;16.40;99.90;;;;;;6187392;23;20442;-76
2023/08/07 07:22:14;;;;;;;11.68;2.42;;;16.30;99.90;;;;;;6187576;23;20063;-75
2023/08/07 07:24:40;;;;;;;10.50;2.65;;;16.30;99.90;;;;;;6160742;23;20209;-74
2023/08/07 07:27:06;;;;;;;12.02;2.60;;;16.30;99.90;;;;;;6160484;23;20079;-76
2023/08/07 07:29:32;;;;;;;9.15;2.60;;;16.30;99.90;;;;;;6160620;23;20078;-75
2023/08/07 07:31:57;;;;;;;10.43;3.00;;;16.20;99.90;;;;;;6160619;23;20025;-76
2023/08/07 07:34:23;;;;;;;11.13;2.90;;;16.00;99.90;;;;;;6187330;23;20021;-78
2023/08/07 07:36:49;;;;;;;9.88;2.63;;;15.90;99.90;;;;;;6160647;23;20021;-74
2023/08/07 07:39:15;;;;;;;11.35;2.40;;;15.80;99.90;;;;;;6160577;23;20021;-74
2023/08/07 07:41:40;;;;;;;15.30;2.80;;;15.80;99.90;;;;;;6160244;23;20378;-76
2023/08/07 07:44:06;;;;;;;7.55;2.30;;;15.80;99.90;;;;;;6159733;23;20025;-76
2023/08/07 07:46:32;;;;;;;6.40;1.73;;;15.90;99.90;;;;;;6159828;23;20032;-75
2023/08/07 07:48:58;;;;;;;8.48;2.40;;;16.00;99.90;;;;;;6159878;23;20107;-74
2023/08/07 07:51:24;;;;;;;7.57;2.03;;;16.00;99.90;;;;;;6186717;23;20020;-75
2023/08/07 07:53:50;;;;;;;12.45;2.85;;;16.10;99.90;;;;;;6160131;23;20017;-76
2023/08/07 07:56:16;;;;;;;9.43;1.70;;;16.40;99.90;;;;;;6159996;23;20024;-74
2023/08/07 07:58:42;;;;;;;9.18;2.10;;;16.60;99.90;;;;;;6160072;23;20021;-74
2023/08/07 08:01:08;;;;;;;9.25;2.55;;;16.70;99.90;;;;;;6159910;23;20024;-74
2023/08/07 08:03:36;;;;;;;8.80;2.85;;;16.90;99.90;;;;;;6159973;23;20587;-75
2023/08/07 08:06:02;;;;;;;12.32;2.88;;;16.90;99.90;;;;;;6160345;23;20585;-75
2023/08/07 08:08:28;;;;;;;9.10;2.22;;;17.00;99.90;;;;;;6159759;23;20032;-75
2023/08/07 08:10:53;;;;;;;10.77;2.58;;;17.00;99.90;;;;;;6160263;23;20019;-74
2023/08/07 08:13:19;;;;;;;12.10;2.55;;;17.20;99.90;;;;;;6186261;23;20017;-76
2023/08/07 08:15:45;;;;;;;10.43;2.30;;;17.20;99.90;;;;;;6186214;23;20021;-75
2023/08/07 08:18:14;;;;;;;9.93;1.88;;;17.30;99.90;;;;;;6159915;23;20516;-76
2023/08/07 08:20:39;;;;;;;10.82;2.08;;;17.40;99.90;;;;;;6159944;23;20017;-75
2023/08/07 08:23:05;;;;;;;14.63;2.22;;;17.40;99.90;;;;;;6159998;23;20350;-75
2023/08/07 08:25:32;;;;;;;12.05;2.63;;;17.50;99.90;;;;;;6159610;23;20021;-75
2023/08/07 08:27:59;;;;;;;11.48;2.17;;;17.50;99.90;;;;;;6159665;23;20021;-74
2023/08/07 08:30:25;;;;;;;11.68;2.30;;;17.60;99.90;;;;;;6159692;23;20373;-76
2023/08/07 08:32:50;;;;;;;14.05;2.90;;;17.60;99.90;;;;;;6159963;23;20447;-76
2023/08/07 08:35:16;;;;;;;11.10;2.28;;;17.60;99.90;;;;;;6159838;23;20044;-75
2023/08/07 08:37:42;;;;;;;9.73;2.50;;;17.70;99.90;;;;;;6159521;23;20040;-76
2023/08/07 08:40:17;;;;;;;12.38;2.33;;;17.80;99.90;;;;;;6160184;23;20132;-76
2023/08/07 08:42:44;;;;;;;10.07;2.72;;;17.80;99.90;;;;;;6186204;23;20036;-75
2023/08/07 08:45:12;;;;;;;8.15;1.88;;;17.90;99.90;;;;;;6160029;23;20381;-77
2023/08/07 08:47:40;;;;;;;9.85;2.67;;;17.80;99.90;;;;;;6159920;23;20028;-76
2023/08/07 08:50:14;;;;;;;9.68;2.67;;;17.80;99.90;;;;;;6159411;23;20047;-76
2023/08/07 08:52:44;;;;;;;7.85;2.33;;;17.70;99.90;;;;;;6159616;23;20099;-76
2023/08/07 08:55:11;;;;;;;17.98;3.13;;;17.80;99.90;;;;;;6159521;23;20096;-75
2023/08/07 08:57:38;;;;;;;15.10;2.17;;;17.60;99.90;;;;;;6159392;23;20099;-76
2023/08/07 09:00:14;;;;;;;13.18;2.55;;;17.70;99.90;;;;;;6159850;23;20071;-75
2023/08/07 09:02:41;;;;;;;8.38;1.75;;;17.80;99.90;;;;;;6159520;23;20024;-75
2023/08/07 09:05:07;;;;;;;9.55;2.20;;;17.90;99.90;;;;;;6159432;23;20017;-76
2023/08/07 09:07:34;;;;;;;16.02;3.20;;;17.90;99.90;;;;;;6159181;23;20067;-76
2023/08/07 09:10:02;;;;;;;8.07;2.42;;;18.00;99.90;;;;;;6159649;23;20072;-75
2023/08/07 09:12:31;;;;;;;9.00;1.92;;;18.00;99.90;;;;;;6159368;23;20053;-75
2023/08/07 09:14:58;;;;;;;6.88;1.80;;;17.90;99.90;;;;;;6159315;23;20560;-77
2023/08/07 09:17:26;;;;;;;9.82;2.47;;;18.00;99.90;;;;;;6159671;23;20009;-75
2023/08/07 09:19:53;;;;;;;8.93;1.65;;;18.10;99.90;;;;;;6159220;23;20021;-75
2023/08/07 09:22:19;;;;;;;7.97;1.85;;;18.20;99.90;;;;;;6159630;23;20465;-75
2023/08/07 09:24:46;;;;;;;8.27;1.95;;;18.10;99.90;;;;;;6159457;23;20024;-74
2023/08/07 09:27:16;;;;;;;10.57;2.28;;;17.90;99.90;;;;;;6159242;23;20327;-74
2023/08/07 09:29:46;;;;;;;5.47;1.70;;;17.90;99.90;;;;;;6159463;23;20032;-85
2023/08/07 09:32:12;;;;;;;9.20;2.15;;;17.70;99.90;;;;;;6155283;23;20377;-77
2023/08/07 09:34:42;;;;;;;9.95;1.95;;;17.70;99.90;;;;;;6153078;23;20024;-78
2023/08/07 09:37:08;;;;;;;8.60;2.20;;;17.50;99.90;;;;;;6154096;23;20019;-78
2023/08/07 09:39:35;;;;;;;8.27;3.08;;;17.40;99.90;;;;;;6153811;23;20132;-79
2023/08/07 09:42:02;;;;;;;6.80;1.77;;;17.30;99.90;;;;;;6155066;23;20059;-79
2023/08/07 09:44:37;;;;;;;7.82;1.95;;;17.30;99.90;;;;;;6154085;23;20021;-82
2023/08/07 09:47:13;;;;;;;10.45;2.00;;;17.50;99.90;;;;;;6153593;23;20025;-75
2023/08/07 09:49:40;;;;;;;7.25;2.25;;;17.40;99.90;;;;;;6180545;23;20094;-79
2023/08/07 09:52:07;;;;;;;10.40;2.20;;;17.30;99.90;;;;;;6180515;23;20017;-79
2023/08/07 09:54:33;;;;;;;8.50;2.28;;;17.30;99.90;;;;;;6154572;23;20052;-78
2023/08/07 09:57:03;;;;;;;11.48;2.65;;;17.50;99.90;;;;;;6154576;23;20775;-74
2023/08/07 09:59:29;;;;;;;15.32;2.60;;;17.60;99.90;;;;;;6153886;23;20021;-75
2023/08/07 10:01:55;;;;;;;13.88;2.20;;;17.60;99.90;;;;;;6153427;23;20017;-78
2023/08/07 10:04:26;;;;;;;11.10;2.85;;;17.60;99.90;;;;;;6154905;23;20032;-77
2023/08/07 10:06:52;;;;;;;12.02;2.53;;;17.70;99.90;;;;;;6154440;23;20100;-78
2023/08/07 10:09:18;;;;;;;9.35;2.10;;;17.70;99.90;;;;;;6178358;23;20017;-79
2023/08/07 10:11:44;;;;;;;11.55;2.70;;;17.70;99.90;;;;;;6153676;23;20024;-79
2023/08/07 10:14:10;;;;;;;9.95;2.03;;;17.60;99.90;;;;;;6154866;23;20405;-77
2023/08/07 10:16:39;;;;;;;8.25;2.60;;;17.60;99.90;;;;;;6153278;23;20025;-78
2023/08/07 10:19:06;;;;;;;7.80;1.80;;;17.70;99.90;;;;;;6179363;23;20449;-79
2023/08/07 10:21:35;;;;;;;10.45;2.28;;;17.90;99.90;;;;;;6153842;23;20541;-79
2023/08/07 10:24:04;;;;;;;8.70;2.15;;;18.00;99.90;;;;;;6180985;23;20092;-79
2023/08/07 10:26:31;;;;;;;6.57;1.38;;;18.20;99.90;;;;;;6153691;23;20059;-79
2023/08/07 10:29:07;;;;;;;11.73;1.60;;;18.30;99.90;;;;;;6180137;23;20087;-80
2023/08/07 10:31:34;;;;;;;10.82;2.30;;;18.40;99.90;;;;;;6153674;23;20017;-78
2023/08/07 10:34:01;;;;;;;8.48;1.83;;;18.40;99.90;;;;;;6154112;23;20449;-78
2023/08/07 10:36:34;;;;;;;9.43;1.75;;;18.40;99.90;;;;;;6154463;23;20088;-76
2023/08/07 10:39:10;;;;;;;9.40;1.90;;;18.50;99.90;;;;;;6153725;23;20025;-79
2023/08/07 10:41:45;;;;;;;9.00;1.70;;;18.50;99.90;;;;;;6154108;23;20071;-80
2023/08/07 10:44:31;;;;;;;8.90;1.63;;;18.40;99.90;;;;;;6154062;23;20021;-78
2023/08/07 10:46:58;;;;;;;10.93;2.22;;;18.40;99.90;;;;;;6154656;23;20139;-78
2023/08/07 10:49:38;;;;;;;10.38;2.58;;;18.30;99.90;;;;;;6153490;23;20021;-77
2023/08/07 10:52:07;;;;;;;10.23;2.47;;;18.10;99.90;;;;;;6154817;23;20088;-79
2023/08/07 10:54:43;;;;;;;10.73;2.22;;;17.90;99.90;;;;;;6153578;23;20327;-78
2023/08/07 10:57:18;;;;;;;8.93;1.77;;;17.80;99.90;;;;;;6156834;23;20017;-77
2023/08/07 10:59:56;;;;;;;5.50;1.65;;;17.70;99.90;;;;;;6159046;23;20021;-76
2023/08/07 11:02:26;;;;;;;9.32;2.53;;;17.60;99.90;;;;;;6158975;23;20242;-75
2023/08/07 11:04:55;;;;;;;7.25;2.38;;;17.50;99.90;;;;;;6159007;23;20021;-78
2023/08/07 11:07:29;;;;;;;6.70;1.48;;;17.50;99.90;;;;;;6159125;23;20021;-76
2023/08/07 11:09:56;;;;;;;5.90;1.55;;;17.50;99.90;;;;;;6159007;23;20017;-76
2023/08/07 11:12:25;;;;;;;13.02;2.53;;;17.50;99.90;;;;;;6158959;23;20017;-77
2023/08/07 11:14:52;;;;;;;7.57;1.48;;;17.60;99.90;;;;;;6159075;23;20021;-76
2023/08/07 11:17:19;;;;;;;7.10;1.75;;;17.60;99.90;;;;;;6158975;23;20456;-75
2023/08/07 11:19:47;;;;;;;5.88;1.73;;;17.50;99.90;;;;;;6187043;23;20020;-78
2023/08/07 11:22:16;;;;;;;6.65;1.60;;;17.50;99.90;;;;;;6160816;23;20044;-76
2023/08/07 11:24:42;;;;;;;6.18;1.67;;;17.40;99.90;;;;;;6160225;23;20075;-77
2023/08/07 11:27:10;;;;;;;7.13;1.83;;;17.40;99.90;;;;;;6160469;23;20021;-76
2023/08/07 11:29:36;;;;;;;9.20;1.73;;;17.50;99.90;;;;;;6186531;23;20392;-76
2023/08/07 11:32:02;;;;;;;10.02;2.13;;;17.60;99.90;;;;;;6187343;23;20021;-76
2023/08/07 11:34:28;;;;;;;7.78;2.00;;;17.60;99.90;;;;;;6187406;23;20017;-78
2023/08/07 11:36:55;;;;;;;6.00;1.25;;;17.80;99.90;;;;;;6160604;23;20009;-77
2023/08/07 11:39:20;;;;;;;8.88;1.60;;;17.60;99.90;;;;;;6186726;23;20028;-76
2023/08/07 11:41:46;;;;;;;5.10;1.65;;;17.50;99.90;;;;;;6159263;23;20013;-76
2023/08/07 11:44:12;;;;;;;6.13;1.50;;;17.40;99.90;;;;;;6160336;23;20121;-76
2023/08/07 11:46:38;;;;;;;6.43;1.10;;;17.20;99.90;;;;;;6160290;23;20449;-76
2023/08/07 11:49:11;;;;;;;7.45;2.03;;;17.20;99.90;;;;;;6159806;23;20020;-77
2023/08/07 11:51:36;;;;;;;;;;;17.30;99.90;;;;;;6160529;23;20316;-77
2023/08/07 11:54:03;;;;;;;6.82;1.80;;;17.30;99.90;;;;;;6184999;23;20027;-76
2023/08/07 11:56:29;;;;;;;7.53;1.65;;;17.40;99.90;;;;;;6160322;23;20028;-76
2023/08/07 11:58:57;;;;;;;7.97;1.70;;;17.60;99.90;;;;;;6160046;23;20013;-76
2023/08/07 12:01:24;;;;;;;10.10;1.90;;;17.80;99.90;;;;;;6160459;23;20503;-76
2023/08/07 12:04:08;;;;;;;6.88;1.75;;;17.70;99.90;;;;;;6160287;23;20036;-75
2023/08/07 12:06:35;;;;;;;9.93;2.10;;;17.80;99.90;;;;;;6160463;23;20021;-76
2023/08/07 12:09:01;;;;;;;7.07;1.83;;;17.80;99.90;;;;;;6160173;23;20433;-77
2023/08/07 12:11:29;;;;;;;5.72;1.90;;;18.00;99.90;;;;;;6160441;23;20080;-76
2023/08/07 12:13:55;;;;;;;8.55;1.80;;;18.10;99.90;;;;;;6160194;23;20024;-77
2023/08/07 12:16:21;;;;;;;7.47;2.17;;;18.10;99.90;;;;;;6186801;23;20021;-76
2023/08/07 12:18:51;;;;;;;7.18;1.58;;;18.40;99.90;;;;;;6160337;23;20017;-76
2023/08/07 12:21:20;;;;;;;10.40;1.95;;;18.40;99.90;;;;;;6160341;23;20031;-78
2023/08/07 12:23:47;;;;;;;6.63;2.53;;;18.50;99.90;;;;;;6160309;23;20406;-77
2023/08/07 12:26:16;;;;;;;10.32;2.05;;;18.50;99.90;;;;;;6186469;23;20449;-78
2023/08/07 12:28:42;;;;;;;8.70;2.58;;;18.60;99.90;;;;;;6160032;23;20056;-78
2023/08/07 12:31:08;;;;;;;9.70;2.38;;;18.70;99.90;;;;;;6160560;23;20353;-77
2023/08/07 12:33:37;;;;;;;8.55;2.28;;;18.90;99.90;;;;;;6159936;23;20021;-79
2023/08/07 12:36:02;;;;;;;8.20;2.13;;;19.10;99.90;;;;;;6160815;23;20021;-79
2023/08/07 12:38:29;;;;;;;6.93;2.25;;;18.90;99.90;;;;;;6187019;23;20013;-78
2023/08/07 12:40:55;;;;;;;10.35;1.58;;;18.90;99.90;;;;;;6160354;23;20327;-78
2023/08/07 12:43:21;;;;;;;10.35;2.17;;;18.70;99.90;;;;;;6160174;23;20052;-76